Badan Meteorologi, Klimatologi, dan Geofisika

CUACA TERKINI BANDARA KUALANAMU

Minggu, 18 November 2018 03:11 UTC

Cuaca : Berawan

Angin : (dari) Utara, 18.5 km/jam

Jarak Pandang : >=10 km

Suhu : 30 °C

Waktu Pengamatan : 10:30 WIB

Selengkapnya>>>

DATA METEOROLOGI KUALANAMU

Data Metar Terbaru

WIMM 180300Z 32007KT 300V040 9999 SCT018 29/25 Q1012 NOSIG=

WIMM 180100Z 26004KT 4000 HZ SCT018 27/25 Q1011 NOSIG=

TAF WIMM 172300Z 1800/1900 03010KT 9000 SCT018 TEMPO 1810/1814 VRB10KT 5000 -TSRA FEW017CB BKN018 BECMG 1814/1815 VRB03KT 3000 BR =

Selengkapnya>>>

Data TAF Terbaru

TAF WIMM 172300Z 1800/1900 03010KT 9000 SCT018 TEMPO 1810/1814 VRB10KT 5000 -TSRA FEW017CB BKN018 BECMG 1814/1815 VRB03KT 3000 BR =

Selengkapnya>>>

CITRA SATELIT

Enhanced
Citra Satelit
Cloud Type
Citra Satelit IR
Hotspot
Citra Satelit
Sebaran Asap
Citra Satelit